Site contains unofficial IBTrACS data. Visit the IBTrACS Website to access archived data.

1963 Tropical Cyclone NOT_NAMED (1963007S12117)


IBTrACS version v04r00. Visit IBTrACS website for data access.
Please direct all questions to the IBTrACS Q and A forum

Storm track - Intensity - Wind Radii - Intensity Data - Source Data - All data

Summary Information

Storm ID 1963007S12117
Start Jan 6 23Z
Max Intensity 60 kt (Jan 10 00Z), 980 mb (Jan 9 23Z)
End Jan 14 23Z
ATCF IDs ,SH131963
Track status Best track data.

Storm track plot

Map of storm track

Intensity plots

Map of storm track

Radial wind information

No radial wind information for this storm


Position and Intensity Table

BASIN ISO_TIME_________ NATURE LAT LON WMO PRES BOM PRES NEUMANN WIND NEUMANN PRES
degrees north degrees east mb mb kts mb
SI 1963-01-06 23:00:00 NR -12.00 117.20
SI 1963-01-07 00:00:00 TS -12.01 117.01
SI 01:00:00 TS -12.02 116.84 997 997
SI 03:00:00 TS -12.06 116.48
SI 06:00:00 TS -12.15 115.96 35 997
SI 09:00:00 TS -12.27 115.44 35 997
SI 11:00:00 TS -12.36 115.11 35 997
SI 12:00:00 TS -12.41 114.96 35 997
SI 15:00:00 TS -12.60 114.44 35 997
SI 18:00:00 TS -12.79 113.97 35 997
SI 21:00:00 TS -12.96 113.53 35 997
SI 23:00:00 TS -13.05 113.28 35 997
SI 1963-01-08 00:00:00 TS -13.10 113.17 35 997
SI 01:00:00 TS -13.15 113.07 997 997 35 996
SI 03:00:00 TS -13.23 112.90 37 996
SI 06:00:00 TS -13.35 112.66 40 995
SI 09:00:00 TS -13.47 112.42 40 994
SI 11:00:00 TS -13.55 112.26 40 994
SI 12:00:00 TS -13.60 112.17 40 994
SI 15:00:00 TS -13.76 111.92 42 993
SI 18:00:00 TS -13.94 111.67 45 992
SI 21:00:00 TS -14.12 111.40 45 991
SI 23:00:00 TS -14.24 111.22 45 990
SI 1963-01-09 00:00:00 TS -14.30 111.13 45 990
SI 01:00:00 TS -14.36 111.04 990 990 45 989
SI 03:00:00 TS -14.50 110.84 47 989
SI 06:00:00 TS -14.71 110.55 50 988
SI 09:00:00 TS -14.93 110.26 52 986
SI 11:00:00 TS -15.09 110.08 54 985
SI 12:00:00 TS -15.17 109.98 55 985
SI 15:00:00 TS -15.41 109.72 55 984
SI 18:00:00 TS -15.66 109.48 55 983
SI 21:00:00 TS -15.90 109.26 57 981
SI 23:00:00 TS -16.06 109.14 59 980
SI 1963-01-10 00:00:00 TS -16.13 109.08 60 980
SI 01:00:00 TS -16.21 109.03 980 980 60 980
SI 03:00:00 TS -16.35 108.94 60 980
SI 06:00:00 TS -16.57 108.85 60 980
SI 09:00:00 TS -16.81 108.80 60 980
SI 11:00:00 TS -16.97 108.79 60 980
SI 12:00:00 TS -17.06 108.79 60 980
SI 15:00:00 TS -17.30 108.79 60 980
SI 16:00:00 TS -17.38 108.80 980 980 60 980
SI 18:00:00 TS -17.55 108.84 980 60 980
SI 21:00:00 TS -17.81 108.94 980 60 980
SI 23:00:00 TS -17.99 109.03 980 60 980
SI 1963-01-11 00:00:00 TS -18.09 109.08 980 60 980
SI 01:00:00 TS -18.19 109.14 980 980 60 980
SI 03:00:00 TS -18.40 109.26 60 980
SI 06:00:00 TS -18.75 109.48 60 980
SI 09:00:00 TS -19.09 109.72 60 980
SI 11:00:00 TS -19.32 109.90 60 980
SI 12:00:00 TS -19.44 109.98 60 980
SI 15:00:00 TS -19.81 110.25 60 980
SI 18:00:00 TS -20.19 110.51 60 980
SI 21:00:00 TS -20.59 110.77 60 980
SI 23:00:00 TS -20.87 110.92 60 980
SI 1963-01-12 00:00:00 TS -21.02 111.00 60 980
SI 01:00:00 TS -21.18 111.08 980 980 60 980
SI 03:00:00 TS -21.50 111.23 980 60 980
SI 06:00:00 TS -21.99 111.39 981 981 60 980
SI 09:00:00 TS -22.47 111.46 981 60 980
SI 11:00:00 TS -22.78 111.42 981 60 980
SI 12:00:00 TS -22.93 111.37 981 60 981
SI 13:00:00 TS -23.08 111.30 982 982 59 981
SI 15:00:00 TS -23.38 111.12 982 57 982
SI 18:00:00 TS -23.80 110.78 983 55 983
SI 21:00:00 TS -24.18 110.45 984 55 983
SI 23:00:00 TS -24.39 110.23 984 55 983
SI 1963-01-13 00:00:00 TS -24.48 110.13 984 55 984
SI 01:00:00 TS -24.55 110.04 985 985 55 984
SI 03:00:00 TS -24.68 109.85 985 55 984
SI 06:00:00 TS -24.80 109.58 985 55 985
SI 09:00:00 TS -24.90 109.30 985 55 985
SI 10:00:00 TS -24.93 109.21 986 986 55 985
SI 11:00:00 TS -24.95 109.11 55 985
SI 12:00:00 TS -24.96 109.01 55 986
SI 15:00:00 TS -24.96 108.68 55 986
SI 18:00:00 TS -24.93 108.33 55 986
SI 21:00:00 TS -24.94 107.85 52 986
SI 23:00:00 TS -24.97 107.35 50 986
SI 1963-01-14 00:00:00 TS -25.02 106.85 50 987
SI 01:00:00 TS -25.08 106.16 988 988
SI 03:00:00 TS -25.29 105.60
SI 06:00:00 TS -25.72 105.11
SI 09:00:00 TS -26.23 104.68
SI 11:00:00 TS -26.60 104.41
SI 12:00:00 TS -26.79 104.29
SI 15:00:00 TS -27.36 103.94
SI 18:00:00 TS -27.94 103.62
SI 21:00:00 NR -28.58 103.37
SI 23:00:00 NR -29.00 103.20

Source Information

Agency Information
USA bsh131963.txt
TOKYO
CMA
HKO
NEWDELHI
REUNION
BOM IDCKMSTM0S.csv:Line=3466:unnamed
NADI
WELLINGTON
DS824 s_hem.dat:863:13S
TD9636 cons_worldwide_trop_cyclone_18710101-19891231-006:Line=6332
TD9635
NEUMANN tracks.sh:Storm=55:HSK0963:BSH1363:BM313
MLC

All available IBTrACS Data

SEASON BASIN SUBBASIN ISO_TIME_________ NATURE LAT LON WMO PRES WMO AGENCY DIST2LAND LANDFALL IFLAG USA AGENCY USA ATCF_ID USA LAT USA LON USA SSHS BOM LAT BOM LON BOM PRES BOM PRES_METHOD DS824 LAT DS824 LON DS824 STAGE TD9636 LAT TD9636 LON TD9636 STAGE NEUMANN LAT NEUMANN LON NEUMANN CLASS NEUMANN WIND NEUMANN PRES STORM SPEED STORM DIR
Year degrees north degrees east mb km km degrees north degrees east 1 degrees north degrees east mb degrees north degrees east degrees north degrees east degrees north degrees east kts mb kts degrees
1963 SI WA 1963-01-06 23:00:00 NR -12.00 117.20 325 324 __________O___ -1 -12.00 117.20 1 11 268
1963 SI WA 1963-01-07 00:00:00 TS -12.01 117.01 324 324 O________OP___ jtwc_sh SH131963 -12.00 117.00 -1 -12.00 117.00 TC -12.01 117.01 1 10 267
1963 SI WA 01:00:00 TS -12.02 116.84 997 bom 325 325 P_____O__PP___ SH131963 -12.01 116.82 -1 -12.00 117.00 997 -12.01 116.82 TC -12.03 116.83 1 10 264
1963 SI WA 03:00:00 TS -12.06 116.48 340 340 P_____P__PP___ SH131963 -12.05 116.45 -1 -12.12 116.62 -12.05 116.45 TC -12.06 116.45 1 10 261
1963 SI WA 06:00:00 TS -12.15 115.96 349 349 O_____P__OP_O_ jtwc_sh SH131963 -12.10 115.90 -1 -12.29 116.06 -12.10 115.90 TC -12.13 115.90 1 -12.20 116.40 TC 35 997 10 259
1963 SI WA 09:00:00 TS -12.27 115.44 385 385 P_____P__PP_P_ SH131963 -12.18 115.34 -1 -12.46 115.51 -12.18 115.34 TC -12.22 115.35 1 -12.34 115.90 TC 35 997 10 256
1963 SI WA 11:00:00 TS -12.36 115.11 403 403 P_____P__PO_P_ SH131963 -12.25 114.98 -1 -12.57 115.15 -12.25 114.98 TC -12.30 115.00 1 -12.44 115.57 TC 35 997 10 253
1963 SI WA 12:00:00 TS -12.41 114.96 403 403 O_____P__OP_O_ jtwc_sh SH131963 -12.30 114.80 -1 -12.63 114.98 -12.30 114.80 TC -12.35 114.83 1 -12.50 115.40 TC 35 997 10 250
1963 SI WA 15:00:00 TS -12.60 114.44 426 426 P_____P__PP_P_ SH131963 -12.49 114.27 -1 -12.79 114.46 -12.49 114.27 TC -12.52 114.32 1 -12.70 114.90 TC 35 997 10 249
1963 SI WA 18:00:00 TS -12.79 113.97 452 452 O_____P__OP_O_ jtwc_sh SH131963 -12.70 113.80 -1 -12.95 113.98 -12.70 113.80 TC -12.71 113.85 1 -12.90 114.40 TC 35 997 10 248
1963 SI WA 21:00:00 TS -12.96 113.53 485 485 P_____P__PP_P_ SH131963 -12.86 113.40 -1 -13.10 113.53 -12.86 113.40 TC -12.89 113.44 1 -13.06 113.87 TC 35 997 9 249
1963 SI WA 23:00:00 TS -13.05 113.28 502 502 P_____P__PO_P_ SH131963 -12.96 113.19 -1 -13.20 113.26 -12.96 113.19 TC -13.00 113.20 1 -13.15 113.54 TC 35 997 8 247
1963 SI WA 1963-01-08 00:00:00 TS -13.10 113.17 505 505 O_____P__OP_O_ jtwc_sh SH131963 -13.00 113.10 -1 -13.25 113.13 -13.00 113.10 TC -13.04 113.10 1 -13.20 113.40 TC 35 997 7 245
1963 SI WA 01:00:00 TS -13.15 113.07 997 bom 519 519 P_____O__PP_P_ SH131963 -13.04 113.02 -1 -13.30 113.00 997 -13.04 113.02 TC -13.08 113.00 1 -13.25 113.27 TC 35 996 6 243
1963 SI WA 03:00:00 TS -13.23 112.90 524 524 P_____P__PP_P_ SH131963 -13.11 112.88 -1 -13.40 112.77 -13.11 112.88 TC -13.14 112.84 1 -13.35 113.06 TC 37 996 5 243
1963 SI WA 06:00:00 TS -13.35 112.66 550 550 O_____P__OP_O_ jtwc_sh SH131963 -13.20 112.70 -1 -13.53 112.45 -13.20 112.70 TC -13.23 112.63 1 -13.50 112.80 TC 40 995 5 243
1963 SI WA 09:00:00 TS -13.47 112.42 569 569 P_____P__PP_P_ SH131963 -13.28 112.46 -1 -13.67 112.17 -13.28 112.46 TC -13.32 112.44 1 -13.65 112.54 TC 40 994 5 243
1963 SI WA 11:00:00 TS -13.55 112.26 583 583 P_____P__PO_P_ SH131963 -13.36 112.29 -1 -13.77 112.01 -13.36 112.29 TC -13.40 112.30 1 -13.75 112.38 TC 40 994 5 242
1963 SI WA 12:00:00 TS -13.60 112.17 584 584 O_____P__OP_O_ jtwc_sh SH131963 -13.40 112.20 -1 -13.81 111.93 -13.40 112.20 TC -13.45 112.22 1 -13.80 112.30 TC 40 994 6 237
1963 SI WA 15:00:00 TS -13.76 111.92 605 604 P_____P__PP_P_ SH131963 -13.58 111.96 -1 -13.96 111.70 -13.58 111.96 TC -13.60 111.95 1 -13.95 112.05 TC 42 993 6 235
1963 SI WA 18:00:00 TS -13.94 111.67 615 615 O_____P__OP_O_ jtwc_sh SH131963 -13.80 111.70 -1 -14.11 111.49 -13.80 111.70 TC -13.77 111.68 1 -14.10 111.80 TC 45 992 6 235
1963 SI WA 21:00:00 TS -14.12 111.40 639 639 P_____P__PP_P_ SH131963 -14.00 111.41 -1 -14.27 111.28 -14.00 111.41 TC -13.96 111.39 1 -14.24 111.55 TC 45 991 6 235
1963 SI WA 23:00:00 TS -14.24 111.22 651 651 P_____P__PO_P_ SH131963 -14.13 111.20 -1 -14.38 111.14 -14.13 111.20 TC -14.10 111.20 1 -14.34 111.38 TC 45 990 7 235
1963 SI WA 1963-01-09 00:00:00 TS -14.30 111.13 663 663 O_____P__OP_O_ jtwc_sh SH131963 -14.20 111.10 -1 -14.44 111.07 -14.20 111.10 TC -14.17 111.10 1 -14.40 111.30 TC 45 990 7 234
1963 SI WA 01:00:00 TS -14.36 111.04 990 bom 676 676 P_____O__PP_P_ SH131963 -14.26 111.00 -1 -14.50 111.00 990 -14.26 111.00 TC -14.24 111.00 1 -14.46 111.22 TC 45 989 7 235
1963 SI WA 03:00:00 TS -14.50 110.84 690 690 P_____P__PP_P_ SH131963 -14.39 110.80 -1 -14.63 110.81 -14.39 110.80 TC -14.38 110.79 1 -14.59 111.05 TC 47 989 7 234
1963 SI WA 06:00:00 TS -14.71 110.55 715 715 O_____P__OP_O_ jtwc_sh SH131963 -14.60 110.50 -1 -14.83 110.52 -14.60 110.50 TC -14.60 110.48 1 -14.80 110.80 TC 50 988 7 232
1963 SI WA 09:00:00 TS -14.93 110.26 743 743 P_____P__PP_P_ SH131963 -14.84 110.19 -1 -15.05 110.23 -14.84 110.19 TC -14.84 110.19 1 -14.99 110.55 TC 52 986 7 231
1963 SI WA 11:00:00 TS -15.09 110.08 770 770 P_____P__PO_P_ SH131963 -15.01 109.99 -1 -15.20 110.04 -15.01 109.99 TC -15.00 110.00 1 -15.13 110.38 TC 54 985 7 229
1963 SI WA 12:00:00 TS -15.17 109.98 783 783 O_____P__OP_O_ jtwc_sh SH131963 -15.10 109.90 -1 -15.27 109.95 -15.10 109.90 TC -15.08 109.91 1 -15.20 110.30 TC 55 985 7 226
1963 SI WA 15:00:00 TS -15.41 109.72 811 811 P_____P__PP_P_ SH131963 -15.35 109.63 -1 -15.50 109.68 -15.35 109.63 TC -15.33 109.64 1 -15.45 110.05 TC 55 984 7 225
1963 SI WA 18:00:00 TS -15.66 109.48 839 833 O_____P__OP_O_ jtwc_sh SH131963 -15.60 109.40 -1 -15.74 109.44 -15.60 109.40 TC -15.58 109.41 1 -15.70 109.80 TC 55 983 7 222
1963 SI WA 21:00:00 TS -15.90 109.26 833 830 P_____P__PP_P_ SH131963 -15.86 109.18 -1 -15.98 109.23 -15.86 109.18 TC -15.84 109.21 1 -15.90 109.53 TC 57 981 6 220
1963 SI WA 23:00:00 TS -16.06 109.14 828 828 P_____P__PO_P_ SH131963 -16.02 109.05 -1 -16.14 109.10 -16.02 109.05 TC -16.00 109.10 1 -16.03 109.37 TC 59 980 6 216
1963 SI WA 1963-01-10 00:00:00 TS -16.13 109.08 828 819 O_____P__OP_O_ jtwc_sh SH131963 -16.10 109.00 -1 -16.22 109.05 -16.10 109.00 TC -16.08 109.05 1 -16.10 109.30 TC 60 980 6 216
1963 SI WA 01:00:00 TS -16.21 109.03 980 bom 826 817 P_____O__PP_P_ SH131963 -16.17 108.95 -1 -16.30 109.00 980 -16.17 108.95 TC -16.15 109.00 1 -16.18 109.23 TC 60 980 5 212
1963 SI WA 03:00:00 TS -16.35 108.94 815 798 P_____P__PP_P_ SH131963 -16.30 108.87 -1 -16.46 108.90 -16.30 108.87 TC -16.30 108.92 1 -16.34 109.12 TC 60 980 5 206
1963 SI WA 06:00:00 TS -16.57 108.85 805 789 O_____P__OP_O_ jtwc_sh SH131963 -16.50 108.80 -1 -16.70 108.79 -16.50 108.80 TC -16.52 108.84 1 -16.60 109.00 TC 60 980 5 196
1963 SI WA 09:00:00 TS -16.81 108.80 789 772 P_____P__PP_P_ SH131963 -16.74 108.78 -1 -16.94 108.71 -16.74 108.78 TC -16.74 108.80 1 -16.85 108.93 TC 60 980 5 188
1963 SI WA 11:00:00 TS -16.97 108.79 772 772 P_____P__PO_P_ SH131963 -16.91 108.79 -1 -17.10 108.68 -16.91 108.79 TC -16.90 108.80 1 -17.02 108.91 TC 60 980 5 0
1963 SI WA 12:00:00 TS -17.06 108.79 764 749 O_____P__OP_O_ jtwc_sh SH131963 -17.00 108.80 -1 -17.18 108.67 -17.00 108.80 TC -16.98 108.80 1 -17.10 108.90 TC 60 980 5 0
1963 SI WA 15:00:00 TS -17.30 108.79 749 741 P_____P__PP_P_ SH131963 -17.24 108.83 -1 -17.42 108.69 -17.24 108.83 TC -17.23 108.82 1 -17.36 108.83 TC 60 980 5 176
1963 SI WA 16:00:00 TS -17.38 108.80 980 bom 741 733 P_____O__PP_P_ SH131963 -17.33 108.85 -1 -17.50 108.70 980 -17.33 108.85 TC -17.32 108.84 1 -17.44 108.81 TC 60 980 5 171
1963 SI WA 18:00:00 TS -17.55 108.84 726 703 O_____P__OP_O_ jtwc_sh SH131963 -17.50 108.90 -1 -17.65 108.73 980 -17.50 108.90 TC -17.50 108.89 1 -17.60 108.80 TC 60 980 5 163
1963 SI WA 21:00:00 TS -17.81 108.94 703 680 P_____P__PP_P_ SH131963 -17.78 109.03 -1 -17.87 108.82 980 -17.78 109.03 TC -17.79 109.00 1 -17.78 108.86 TC 60 980 6 157
1963 SI WA 23:00:00 TS -17.99 109.03 680 665 P_____P__PO_P_ SH131963 -17.99 109.14 -1 -18.03 108.90 980 -17.99 109.14 TC -18.00 109.10 7 -17.92 108.95 TC 60 980 6 154
1963 SI WA 1963-01-11 00:00:00 TS -18.09 109.08 665 658 O_____P__OP_O_ jtwc_sh SH131963 -18.10 109.20 -1 -18.11 108.95 980 -18.10 109.20 TC -18.10 109.15 7 -18.00 109.00 TC 60 980 7 153
1963 SI WA 01:00:00 TS -18.19 109.14 980 bom 658 627 P_____O__PP_P_ SH131963 -18.21 109.26 -1 -18.20 109.00 980 -18.21 109.26 TC -18.21 109.21 7 -18.10 109.05 TC 60 980 7 152
1963 SI WA 03:00:00 TS -18.40 109.26 627 590 P_____P__PP_P_ SH131963 -18.44 109.39 -1 -18.38 109.12 -18.44 109.39 TC -18.43 109.35 7 -18.33 109.18 TC 60 980 8 150
1963 SI WA 06:00:00 TS -18.75 109.48 590 546 O_____P__OP_O_ jtwc_sh SH131963 -18.80 109.60 -1 -18.67 109.33 -18.80 109.60 TC -18.78 109.58 7 -18.70 109.40 TC 60 980 8 147
1963 SI WA 09:00:00 TS -19.09 109.72 546 516 P_____P__PP_P_ SH131963 -19.14 109.84 -1 -18.99 109.58 -19.14 109.84 TC -19.15 109.83 7 -19.05 109.64 TC 60 980 8 146
1963 SI WA 11:00:00 TS -19.32 109.90 516 501 P_____P__PO_P_ SH131963 -19.38 110.01 -1 -19.22 109.76 -19.38 110.01 TC -19.40 110.00 2 -19.28 109.81 TC 60 980 9 145
1963 SI WA 12:00:00 TS -19.44 109.98 501 459 O_____P__OP_O_ jtwc_sh SH131963 -19.50 110.10 -1 -19.33 109.86 -19.50 110.10 TC -19.52 110.09 2 -19.40 109.90 TC 60 980 9 146
1963 SI WA 15:00:00 TS -19.81 110.25 459 409 P_____P__PP_P_ SH131963 -19.88 110.35 -1 -19.69 110.14 -19.88 110.35 TC -19.88 110.36 2 -19.75 110.15 TC 60 980 9 147
1963 SI WA 18:00:00 TS -20.19 110.51 409 362 O_____P__OP_O_ jtwc_sh SH131963 -20.30 110.60 -1 -20.07 110.42 -20.30 110.60 TC -20.26 110.62 2 -20.10 110.40 TC 60 980 9 148
1963 SI WA 21:00:00 TS -20.59 110.77 362 342 P_____P__PP_P_ SH131963 -20.73 110.86 -1 -20.46 110.69 -20.73 110.86 TC -20.69 110.86 2 -20.44 110.66 TC 60 980 9 150
1963 SI WA 23:00:00 TS -20.87 110.92 337 322 P_____P__PO_P_ SH131963 -21.04 111.02 -1 -20.73 110.85 -21.04 111.02 TC -21.00 111.00 4 -20.68 110.82 TC 60 980 10 153
1963 SI WA 1963-01-12 00:00:00 TS -21.02 111.00 322 301 O_____P__OP_O_ jtwc_sh SH131963 -21.20 111.10 -1 -20.86 110.93 -21.20 111.10 TC -21.18 111.08 4 -20.80 110.90 TC 60 980 10 154
1963 SI WA 01:00:00 TS -21.18 111.08 980 bom 301 276 P_____O__PP_P_ SH131963 -21.37 111.19 -1 -21.00 111.00 980 4 -21.37 111.19 TC -21.36 111.17 4 -20.93 110.98 TC 60 980 10 156
1963 SI WA 03:00:00 TS -21.50 111.23 276 235 P_____P__PP_P_ SH131963 -21.73 111.35 -1 -21.29 111.14 980 -21.73 111.35 TC -21.74 111.31 4 -21.20 111.12 TC 60 980 10 160
1963 SI WA 06:00:00 TS -21.99 111.39 981 bom 235 216 O_____O__OP_O_ jtwc_sh SH131963 -22.30 111.50 -1 -21.70 111.30 981 -22.30 111.50 TC -22.34 111.47 4 -21.60 111.30 TC 60 980 10 168
1963 SI WA 09:00:00 TS -22.47 111.46 215 215 P_____P__PP_P_ SH131963 -22.91 111.51 -1 -22.06 111.39 981 -22.91 111.51 TC -22.93 111.49 4 -21.96 111.44 TC 60 980 10 0
1963 SI WA 11:00:00 TS -22.78 111.42 226 226 P_____P__PO_P_ SH131963 -23.31 111.40 -1 -22.28 111.41 981 -23.31 111.40 TC -23.30 111.40 4 -22.19 111.49 TC 60 980 9 189
1963 SI WA 12:00:00 TS -22.93 111.37 227 227 O_____P__OP_O_ jtwc_sh SH131963 -23.50 111.30 -1 -22.39 111.41 981 -23.50 111.30 TC -23.48 111.30 4 -22.30 111.50 TC 60 981 10 199
1963 SI WA 13:00:00 TS -23.08 111.30 982 bom 241 237 P_____O__PP_P_ SH131963 -23.69 111.17 -1 -22.50 111.40 982 -23.69 111.17 TC -23.66 111.18 4 -22.41 111.50 TC 59 981 10 207
1963 SI WA 15:00:00 TS -23.38 111.12 250 248 P_____P__PP_P_ SH131963 -24.05 110.81 -1 -22.76 111.38 982 -24.05 110.81 TC -24.00 110.87 4 -22.64 111.48 TC 57 982 10 214
1963 SI WA 18:00:00 TS -23.80 110.78 272 272 O_____P__OP_O_ jtwc_sh SH131963 -24.50 110.20 -1 -23.15 111.31 983 -24.50 110.20 TC -24.45 110.30 4 -23.00 111.40 TC 55 983 10 217
1963 SI WA 21:00:00 TS -24.18 110.45 294 294 P_____P__PP_P_ SH131963 -24.87 109.68 -1 -23.54 111.19 984 -24.87 109.68 TC -24.82 109.68 4 -23.41 111.32 TC 55 983 9 220
1963 SI WA 23:00:00 TS -24.39 110.23 323 323 P_____P__PO_P_ SH131963 -25.04 109.35 -1 -23.78 111.10 984 -25.04 109.35 TC -25.00 109.30 1 -23.68 111.24 TC 55 983 8 224
1963 SI WA 1963-01-13 00:00:00 TS -24.48 110.13 334 334 O_____P__OP_O_ jtwc_sh SH131963 -25.10 109.20 -1 -23.89 111.05 984 -25.10 109.20 TC -25.07 109.16 1 -23.80 111.20 TC 55 984 7 228
1963 SI WA 01:00:00 TS -24.55 110.04 985 bom 344 344 P_____O__PP_P_ SH131963 -25.15 109.05 -1 -24.00 111.00 985 -25.15 109.05 TC -25.13 109.02 1 -23.90 111.16 TC 55 984 7 233
1963 SI WA 03:00:00 TS -24.68 109.85 355 355 P_____P__PP_P_ SH131963 -25.19 108.78 -1 -24.20 110.91 985 -25.19 108.78 TC -25.21 108.76 1 -24.08 111.06 TC 55 984 6 240
1963 SI WA 06:00:00 TS -24.80 109.58 386 386 O_____P__OP_O_ jtwc_sh SH131963 -25.20 108.40 -1 -24.45 110.76 985 -25.20 108.40 TC -25.25 108.39 1 -24.30 110.90 TC 55 985 5 245
1963 SI WA 09:00:00 TS -24.90 109.30 417 417 P_____P__PP_P_ SH131963 -25.22 108.05 -1 -24.65 110.57 985 -25.22 108.05 TC -25.23 108.04 1 -24.53 110.72 TC 55 985 5 249
1963 SI WA 10:00:00 TS -24.93 109.21 986 bom 427 427 P_____O__PP_P_ SH131963 -25.22 107.94 -1 -24.70 110.50 986 -25.22 107.94 TC -25.21 107.92 1 -24.60 110.65 TC 55 985 5 255
1963 SI WA 11:00:00 TS -24.95 109.11 438 438 P_____P__PO_P_ SH131963 -25.21 107.82 -1 -24.75 110.42 -25.21 107.82 TC -25.20 107.80 2 -24.65 110.58 TC 55 985 6 260
1963 SI WA 12:00:00 TS -24.96 109.01 448 448 O_____P__OP_O_ jtwc_sh SH131963 -25.20 107.70 -1 -24.79 110.34 -25.20 107.70 TC -25.17 107.67 2 -24.70 110.50 TC 55 986 6 269
1963 SI WA 15:00:00 TS -24.96 108.68 477 477 P_____P__PP_P_ SH131963 -25.10 107.31 -1 -24.89 110.07 -25.10 107.31 TC -25.07 107.28 2 -24.77 110.21 TC 55 986 6 273
1963 SI WA 18:00:00 TS -24.93 108.33 518 518 O_____P__OP_O_ jtwc_sh SH131963 -25.00 106.90 -1 -24.95 109.77 -25.00 106.90 TC -24.97 106.89 2 -24.80 109.90 TC 55 986 8 271
1963 SI WA 21:00:00 TS -24.94 107.85 557 557 P_____P__PP_P_ SH131963 -24.93 106.51 -1 -24.98 109.45 -24.93 106.51 TC -24.94 106.48 2 -24.88 109.60 TC 52 986 11 267
1963 SI WA 23:00:00 TS -24.97 107.35 613 613 P_____P__PO_P_ SH131963 -24.95 106.24 -1 -24.99 109.23 -24.95 106.24 TC -25.00 106.20 1 -24.96 109.40 TC 50 986 18 265
1963 SI WA 1963-01-14 00:00:00 TS -25.02 106.85 653 653 O_____P__OP_O_ jtwc_sh SH131963 -25.00 106.10 -1 -25.00 109.11 -25.00 106.10 TC -25.06 106.05 1 -25.00 109.30 TC 50 987 32 264
1963 SI WA 01:00:00 TS -25.08 106.16 988 bom 720 720 P_____O__PP___ SH131963 -25.07 105.94 -1 -25.00 109.00 988 -25.07 105.94 TC -25.14 105.90 1 TC 23 256
1963 SI WA 03:00:00 TS -25.29 105.60 775 775 P________PP___ SH131963 -25.27 105.60 -1 -25.27 105.60 TC -25.35 105.58 1 TC 14 236
1963 SI WA 06:00:00 TS -25.72 105.11 820 819 O________OP___ jtwc_sh SH131963 -25.70 105.10 -1 -25.70 105.10 TC -25.75 105.12 1 13 222
1963 SI WA 09:00:00 TS -26.23 104.68 856 856 P________PP___ SH131963 -26.22 104.68 -1 -26.22 104.68 TC -26.24 104.67 1 13 215
1963 SI WA 11:00:00 TS -26.60 104.41 885 885 P________PO___ SH131963 -26.61 104.42 -1 -26.61 104.42 TC -26.60 104.40 1 13 211
1963 SI WA 12:00:00 TS -26.79 104.29 895 895 O________OP___ jtwc_sh SH131963 -26.80 104.30 -1 -26.80 104.30 TC -26.79 104.27 1 13 209
1963 SI WA 15:00:00 TS -27.36 103.94 939 939 P________PP___ SH131963 -27.36 103.95 -1 -27.36 103.95 TC -27.37 103.94 1 13 207
1963 SI WA 18:00:00 TS -27.94 103.62 975 975 O________OP___ jtwc_sh SH131963 -27.90 103.60 -1 -27.90 103.60 TC -27.97 103.64 1 13 202
1963 SI WA 21:00:00 NR -28.58 103.37 1008 1008 __________P___ SH131963 -1 TC -28.58 103.37 1 14 199
1963 SI WA 23:00:00 NR -29.00 103.20 1038 __________O___ SH131963 -1 TC -29.00 103.20 1 13 200